Time;durP1;ratioP1;P1;durP2;ratioP2;P2;SDS_P1;SDS_P2;PMS_P1;PMS_P2;Temp;Humidity;BMP_temperature;BMP_pressure;BME280_temperature;BME280_humidity;BME280_pressure;Samples;Min_cycle;Max_cycle;Signal;HPM_P1;HPM_P2
2022/11/22 00:01:17;;;;;;;185.18;46.55;;;;;;;;;;4980609;28;20019;-94
2022/11/22 00:03:43;;;;;;;162.23;44.45;;;;;;;;;;4980229;28;20031;-95
2022/11/22 00:06:09;;;;;;;150.52;46.55;;;;;;;;;;4979534;28;20023;-92
2022/11/22 00:08:38;;;;;;;194.40;45.83;;;;;;;;;;4981327;28;20518;-95
2022/11/22 00:11:07;;;;;;;257.33;51.75;;;;;;;;;;4980623;28;20455;-95
2022/11/22 00:13:36;;;;;;;143.88;42.97;;;;;;;;;;4987724;28;20030;-93
2022/11/22 00:16:08;;;;;;;213.82;49.05;;;;;;;;;;4993876;28;20039;-95
2022/11/22 00:18:34;;;;;;;157.13;46.30;;;;;;;;;;4982066;28;20078;-92
2022/11/22 00:21:07;;;;;;;121.32;42.80;;;;;;;;;;4978456;28;20058;-94
2022/11/22 00:23:37;;;;;;;109.85;39.60;;;;;;;;;;4979657;28;20022;-95
2022/11/22 00:26:10;;;;;;;101.55;38.22;;;;;;;;;;4978882;28;20499;-91
2022/11/22 00:28:40;;;;;;;203.32;48.28;;;;;;;;;;4978592;28;20038;-94
2022/11/22 00:31:07;;;;;;;88.43;36.10;;;;;;;;;;4978836;28;20027;-96
2022/11/22 00:33:33;;;;;;;146.55;44.03;;;;;;;;;;4979870;28;20475;-95
2022/11/22 00:36:06;;;;;;;129.40;40.10;;;;;;;;;;4979154;28;20027;-95
2022/11/22 00:39:05;;;;;;;109.88;39.55;;;;;;;;;;4979733;28;20031;-95
2022/11/22 00:41:31;;;;;;;150.00;43.85;;;;;;;;;;4977947;28;20043;-93
2022/11/22 00:43:57;;;;;;;156.73;40.42;;;;;;;;;;4979415;28;20026;-93
2022/11/22 00:46:24;;;;;;;116.93;40.13;;;;;;;;;;4977433;28;20140;-94
2022/11/22 00:48:50;;;;;;;96.28;38.17;;;;;;;;;;4977877;28;20384;-91
2022/11/22 00:51:16;;;;;;;141.77;43.80;;;;;;;;;;4977562;28;20031;-95
2022/11/22 00:53:42;;;;;;;103.13;37.97;;;;;;;;;;4977543;28;20050;-94
2022/11/22 00:56:11;;;;;;;82.18;35.28;;;;;;;;;;4977158;28;20047;-94
2022/11/22 00:58:43;;;;;;;121.65;41.67;;;;;;;;;;4978136;28;20110;-94
2022/11/22 01:01:15;;;;;;;103.68;37.90;;;;;;;;;;4977140;28;20483;-93
2022/11/22 01:03:41;;;;;;;91.00;34.60;;;;;;;;;;4977193;28;20117;-94
2022/11/22 01:06:07;;;;;;;144.20;41.15;;;;;;;;;;4978679;28;20098;-95
2022/11/22 01:08:33;;;;;;;104.45;36.80;;;;;;;;;;4978927;28;20038;-93
2022/11/22 01:11:01;;;;;;;122.45;40.95;;;;;;;;;;4994118;28;20015;-92
2022/11/22 01:13:28;;;;;;;121.90;40.03;;;;;;;;;;4980975;28;20034;-93
2022/11/22 01:15:58;;;;;;;121.00;40.15;;;;;;;;;;4977103;28;20181;-93
2022/11/22 01:18:25;;;;;;;116.30;36.80;;;;;;;;;;4976396;28;20407;-93
2022/11/22 01:20:57;;;;;;;139.27;40.58;;;;;;;;;;4976916;28;20431;-95
2022/11/22 01:23:23;;;;;;;127.72;39.58;;;;;;;;;;4976731;28;20034;-93
2022/11/22 01:25:49;;;;;;;138.23;41.83;;;;;;;;;;4976770;28;20052;-93
2022/11/22 01:28:16;;;;;;;134.88;40.92;;;;;;;;;;4977896;28;20506;-93
2022/11/22 01:30:42;;;;;;;103.78;34.92;;;;;;;;;;4977040;28;20053;-93
2022/11/22 01:33:08;;;;;;;146.45;41.35;;;;;;;;;;4976463;28;20031;-93
2022/11/22 01:35:34;;;;;;;78.90;33.08;;;;;;;;;;4976578;28;20030;-93
2022/11/22 01:38:00;;;;;;;159.43;43.00;;;;;;;;;;4978716;28;20034;-92
2022/11/22 01:40:27;;;;;;;121.43;40.78;;;;;;;;;;4977514;28;20031;-93
2022/11/22 01:42:54;;;;;;;133.88;40.88;;;;;;;;;;4978598;28;20480;-93
2022/11/22 01:45:33;;;;;;;133.65;42.50;;;;;;;;;;4977587;28;20046;-93
2022/11/22 01:48:07;;;;;;;163.25;46.35;;;;;;;;;;4980207;28;20062;-93
2022/11/22 01:50:36;;;;;;;115.03;37.60;;;;;;;;;;4997643;28;20031;-91
2022/11/22 01:53:06;;;;;;;151.23;42.97;;;;;;;;;;4991249;28;20027;-96
2022/11/22 01:55:32;;;;;;;145.35;45.15;;;;;;;;;;4981512;28;20019;-95
2022/11/22 01:58:00;;;;;;;177.45;48.72;;;;;;;;;;4979143;28;20422;-93
2022/11/22 02:00:26;;;;;;;176.77;48.15;;;;;;;;;;4976325;28;20030;-93
2022/11/22 02:02:58;;;;;;;147.80;43.20;;;;;;;;;;4976475;28;20030;-94
2022/11/22 02:05:26;;;;;;;156.73;44.45;;;;;;;;;;4976288;28;20081;-93
2022/11/22 02:08:10;;;;;;;177.02;44.90;;;;;;;;;;4975534;28;20027;-95
2022/11/22 02:10:39;;;;;;;116.60;39.33;;;;;;;;;;4976595;28;20034;-95
2022/11/22 02:13:12;;;;;;;140.73;42.42;;;;;;;;;;4976072;28;20057;-93
2022/11/22 02:15:42;;;;;;;88.50;32.67;;;;;;;;;;4976126;28;20058;-94
2022/11/22 02:18:11;;;;;;;80.03;32.58;;;;;;;;;;4975269;28;20156;-94
2022/11/22 02:20:38;;;;;;;63.85;28.25;;;;;;;;;;4976873;28;20034;-94
2022/11/22 02:23:11;;;;;;;72.68;30.45;;;;;;;;;;4976853;28;20026;-94
2022/11/22 02:25:37;;;;;;;;;;;;;;;;;;4976991;28;20034;-93
2022/11/22 02:28:04;;;;;;;56.72;22.50;;;;;;;;;;4976362;28;20028;-94
2022/11/22 02:30:33;;;;;;;67.18;25.40;;;;;;;;;;4975935;28;20034;-94
2022/11/22 02:32:59;;;;;;;59.67;24.98;;;;;;;;;;4976791;28;20038;-93
2022/11/22 02:35:29;;;;;;;48.00;22.30;;;;;;;;;;4975960;28;20027;-94
2022/11/22 02:38:06;;;;;;;52.50;21.33;;;;;;;;;;4976479;28;20480;-94
2022/11/22 02:46:50;;;;;;;48.97;21.53;;;;;;;;;;4937303;29;20042;-94
2022/11/22 02:49:17;;;;;;;64.38;26.25;;;;;;;;;;4973632;28;20054;-94
2022/11/22 02:51:50;;;;;;;86.70;32.58;;;;;;;;;;4975827;28;20073;-94
2022/11/22 02:54:16;;;;;;;85.40;30.92;;;;;;;;;;4975476;28;20031;-94
2022/11/22 02:56:46;;;;;;;128.25;40.67;;;;;;;;;;4975290;28;20041;-96
2022/11/22 02:59:12;;;;;;;84.72;34.88;;;;;;;;;;4975654;28;20391;-94
2022/11/22 03:01:38;;;;;;;114.00;39.85;;;;;;;;;;4975087;28;20487;-94
2022/11/22 03:04:04;;;;;;;81.72;34.90;;;;;;;;;;4976629;28;20026;-93
2022/11/22 03:06:30;;;;;;;125.20;41.47;;;;;;;;;;4995706;28;20018;-94
2022/11/22 03:08:57;;;;;;;111.55;39.85;;;;;;;;;;4979518;28;20043;-94
2022/11/22 03:11:38;;;;;;;134.88;42.25;;;;;;;;;;4976864;28;20479;-94
2022/11/22 03:14:07;;;;;;;113.72;40.17;;;;;;;;;;4974629;28;20031;-94
2022/11/22 03:16:36;;;;;;;105.22;38.45;;;;;;;;;;4974761;28;20122;-94
2022/11/22 03:19:10;;;;;;;116.60;40.30;;;;;;;;;;4969883;28;20074;-94
2022/11/22 03:21:36;;;;;;;119.82;39.20;;;;;;;;;;4978518;28;20030;-94
2022/11/22 03:24:09;;;;;;;116.90;37.65;;;;;;;;;;4982646;28;20026;-91
2022/11/22 03:27:01;;;;;;;112.55;37.58;;;;;;;;;;4998345;28;20027;-94
2022/11/22 03:29:27;;;;;;;103.15;37.90;;;;;;;;;;4981934;28;20054;-94
2022/11/22 03:31:57;;;;;;;102.90;35.25;;;;;;;;;;4978792;28;20395;-94
2022/11/22 03:34:23;;;;;;;125.68;38.08;;;;;;;;;;4978512;28;20035;-95
2022/11/22 03:36:52;;;;;;;126.15;42.70;;;;;;;;;;4979362;28;20033;-94
2022/11/22 03:39:22;;;;;;;117.30;41.15;;;;;;;;;;4978935;28;20479;-95
2022/11/22 03:41:48;;;;;;;125.13;41.72;;;;;;;;;;4978386;28;20041;-93
2022/11/22 03:44:17;;;;;;;102.50;37.67;;;;;;;;;;4978267;28;20034;-93
2022/11/22 03:46:45;;;;;;;111.90;41.10;;;;;;;;;;4978112;28;20035;-94
2022/11/22 03:49:12;;;;;;;110.00;42.92;;;;;;;;;;4978238;28;20395;-94
2022/11/22 03:51:38;;;;;;;117.57;42.55;;;;;;;;;;4978346;28;20026;-93
2022/11/22 03:54:04;;;;;;;119.25;42.38;;;;;;;;;;4978021;28;20027;-94
2022/11/22 03:56:31;;;;;;;123.22;43.42;;;;;;;;;;4978920;28;20073;-95
2022/11/22 03:58:57;;;;;;;129.20;43.42;;;;;;;;;;4978588;28;20391;-94
2022/11/22 04:01:23;;;;;;;108.13;40.47;;;;;;;;;;4978420;28;20034;-95
2022/11/22 04:03:52;;;;;;;89.65;37.42;;;;;;;;;;4977483;28;20039;-94
2022/11/22 04:06:18;;;;;;;108.47;41.53;;;;;;;;;;4977684;28;20042;-94
2022/11/22 04:08:44;;;;;;;99.72;38.50;;;;;;;;;;4978841;28;20039;-94
2022/11/22 04:11:11;;;;;;;103.65;41.63;;;;;;;;;;4977789;28;20026;-94
2022/11/22 04:16:22;;;;;;;69.55;32.45;;;;;;;;;;4979086;28;20042;-94
2022/11/22 04:18:48;;;;;;;63.08;33.00;;;;;;;;;;4977451;28;20054;-94
2022/11/22 04:21:33;;;;;;;93.32;39.63;;;;;;;;;;4977363;28;20027;-96
2022/11/22 04:26:44;;;;;;;81.50;34.55;;;;;;;;;;4978870;28;20058;-96
2022/11/22 04:29:10;;;;;;;91.88;37.17;;;;;;;;;;4977423;28;20193;-94
2022/11/22 04:34:21;;;;;;;77.82;33.83;;;;;;;;;;4980688;28;20510;-96
2022/11/22 04:36:47;;;;;;;83.65;34.08;;;;;;;;;;4977779;28;20159;-96
2022/11/22 04:39:13;;;;;;;75.10;33.50;;;;;;;;;;4977801;28;20058;-96
2022/11/22 04:41:40;;;;;;;85.53;33.65;;;;;;;;;;4977278;28;20023;-93
2022/11/22 04:52:52;;;;;;;77.55;35.15;;;;;;;;;;4979435;28;20186;-93
2022/11/22 04:52:56;;;;;;;75.07;33.00;;;;;;;;;;4977904;28;20031;-94
2022/11/22 04:55:28;;;;;;;62.92;30.52;;;;;;;;;;4976978;28;20173;-94
2022/11/22 04:57:55;;;;;;;61.83;29.85;;;;;;;;;;4978002;28;20042;-94
2022/11/22 05:00:22;;;;;;;73.57;32.20;;;;;;;;;;4990796;28;20027;-93
2022/11/22 05:02:51;;;;;;;72.05;32.10;;;;;;;;;;4993632;28;20035;-95
2022/11/22 05:05:26;;;;;;;69.53;33.38;;;;;;;;;;4982074;28;20510;-94
2022/11/22 05:07:52;;;;;;;67.55;33.83;;;;;;;;;;4976593;28;20043;-94
2022/11/22 05:10:18;;;;;;;71.40;34.55;;;;;;;;;;4977249;28;20023;-95
2022/11/22 05:12:44;;;;;;;71.90;34.80;;;;;;;;;;4976569;28;20475;-94
2022/11/22 05:15:16;;;;;;;80.50;36.53;;;;;;;;;;4976998;28;20073;-94
2022/11/22 05:17:46;;;;;;;104.53;40.72;;;;;;;;;;4977183;28;20035;-94
2022/11/22 05:20:12;;;;;;;76.97;35.05;;;;;;;;;;4976572;28;20035;-94
2022/11/22 05:25:51;;;;;;;96.97;40.67;;;;;;;;;;4977707;28;20089;-93
2022/11/22 05:28:18;;;;;;;112.10;40.50;;;;;;;;;;4976925;28;20435;-95
2022/11/22 05:30:53;;;;;;;90.93;36.17;;;;;;;;;;4975904;28;20027;-93
2022/11/22 05:33:19;;;;;;;81.68;36.08;;;;;;;;;;4975830;28;20034;-93
2022/11/22 05:35:45;;;;;;;89.88;38.03;;;;;;;;;;4975949;28;20176;-93
2022/11/22 05:38:12;;;;;;;89.68;37.13;;;;;;;;;;4976017;28;20035;-92
2022/11/22 05:40:44;;;;;;;91.57;37.13;;;;;;;;;;4975887;28;20062;-96
2022/11/22 05:43:10;;;;;;;74.85;32.92;;;;;;;;;;4976239;28;20034;-92
2022/11/22 05:45:36;;;;;;;95.18;37.47;;;;;;;;;;4976040;28;20023;-93
2022/11/22 05:50:48;;;;;;;90.00;36.08;;;;;;;;;;4984191;28;20041;-92
2022/11/22 05:53:19;;;;;;;97.75;38.72;;;;;;;;;;4976088;28;20483;-93
2022/11/22 05:55:45;;;;;;;99.03;38.45;;;;;;;;;;4977234;28;20035;-94
2022/11/22 05:58:48;;;;;;;108.07;41.80;;;;;;;;;;4987354;28;20102;-94
2022/11/22 06:01:16;;;;;;;106.50;41.00;;;;;;;;;;4973699;28;20038;-93
2022/11/22 06:03:42;;;;;;;85.40;37.47;;;;;;;;;;4978035;28;20030;-93
2022/11/22 06:06:09;;;;;;;86.03;37.13;;;;;;;;;;4977606;28;20154;-94
2022/11/22 06:08:36;;;;;;;96.95;40.03;;;;;;;;;;4977638;28;20045;-94
2022/11/22 06:14:27;;;;;;;96.38;37.38;;;;;;;;;;5008866;23;20587;-95
2022/11/22 06:16:53;;;;;;;99.13;40.63;;;;;;;;;;4976394;28;20373;-94
2022/11/22 06:19:19;;;;;;;105.03;39.85;;;;;;;;;;4995508;28;20543;-95
2022/11/22 06:21:45;;;;;;;91.07;38.58;;;;;;;;;;4981791;28;20118;-93
2022/11/22 06:24:14;;;;;;;104.25;41.40;;;;;;;;;;4982501;28;20027;-96
2022/11/22 06:26:40;;;;;;;99.30;39.38;;;;;;;;;;4996779;28;20121;-93
2022/11/22 06:29:07;;;;;;;92.47;38.58;;;;;;;;;;4985995;28;20510;-93
2022/11/22 06:31:33;;;;;;;83.72;36.40;;;;;;;;;;4995551;28;20030;-93
2022/11/22 06:34:00;;;;;;;80.47;34.90;;;;;;;;;;4994962;28;20169;-93
2022/11/22 06:36:30;;;;;;;87.07;37.75;;;;;;;;;;5002523;28;20045;-92
2022/11/22 06:38:57;;;;;;;81.85;34.28;;;;;;;;;;5006129;28;20038;-93
2022/11/22 06:41:30;;;;;;;82.75;37.38;;;;;;;;;;4983488;28;20027;-94
2022/11/22 06:43:56;;;;;;;;;;;;;;;;;;4980364;28;20031;-94
2022/11/22 06:46:24;;;;;;;73.05;31.83;;;;;;;;;;4977823;28;19929;-96
2022/11/22 06:48:51;;;;;;;75.50;32.25;;;;;;;;;;4982318;28;20058;-93
2022/11/22 06:54:01;;;;;;;70.13;34.85;;;;;;;;;;4988454;23;20051;-94
2022/11/22 06:56:28;;;;;;;79.95;34.85;;;;;;;;;;4974093;28;20045;-92
2022/11/22 06:59:04;;;;;;;79.93;35.20;;;;;;;;;;4974715;28;20085;-93
2022/11/22 07:01:31;;;;;;;66.88;31.80;;;;;;;;;;4975891;28;20047;-92
2022/11/22 07:03:58;;;;;;;61.08;32.53;;;;;;;;;;4974264;28;20023;-92
2022/11/22 07:06:25;;;;;;;63.33;31.30;;;;;;;;;;4974443;28;20081;-92
2022/11/22 07:08:52;;;;;;;53.22;29.02;;;;;;;;;;4974198;28;20125;-94
2022/11/22 07:11:28;;;;;;;69.07;33.72;;;;;;;;;;4974312;28;20027;-93
2022/11/22 07:14:02;;;;;;;55.45;29.88;;;;;;;;;;4974280;28;20041;-93
2022/11/22 07:16:28;;;;;;;;;;;;;;;;;;4974996;28;20034;-90
2022/11/22 07:18:54;;;;;;;57.35;28.27;;;;;;;;;;4976776;28;19906;-91
2022/11/22 07:21:27;;;;;;;60.72;29.67;;;;;;;;;;4987559;28;20227;-95
2022/11/22 07:23:54;;;;;;;56.22;29.35;;;;;;;;;;4975469;28;20487;-96
2022/11/22 07:26:21;;;;;;;51.95;29.08;;;;;;;;;;4974412;28;20022;-93
2022/11/22 07:28:53;;;;;;;57.80;29.40;;;;;;;;;;4974014;28;20066;-92
2022/11/22 07:31:23;;;;;;;55.40;29.43;;;;;;;;;;4974152;28;20023;-93
2022/11/22 07:33:52;;;;;;;54.20;29.17;;;;;;;;;;4974226;28;20258;-93
2022/11/22 07:36:36;;;;;;;55.75;29.30;;;;;;;;;;4974200;28;20550;-91
2022/11/22 07:39:08;;;;;;;46.42;25.00;;;;;;;;;;4974447;28;20095;-92
2022/11/22 07:41:34;;;;;;;45.40;24.90;;;;;;;;;;4973703;28;20027;-92
2022/11/22 07:44:01;;;;;;;49.63;26.42;;;;;;;;;;4973900;28;20122;-91
2022/11/22 07:46:31;;;;;;;41.60;24.17;;;;;;;;;;4974203;28;20034;-93
2022/11/22 07:48:58;;;;;;;43.78;24.10;;;;;;;;;;4973869;28;20074;-92
2022/11/22 07:51:27;;;;;;;46.47;25.30;;;;;;;;;;4974985;28;20086;-93
2022/11/22 07:53:55;;;;;;;45.88;25.35;;;;;;;;;;4978529;28;20054;-94
2022/11/22 07:56:21;;;;;;;48.45;23.05;;;;;;;;;;4975465;28;20027;-95
2022/11/22 07:58:47;;;;;;;42.45;23.42;;;;;;;;;;4975498;28;20027;-94
2022/11/22 08:01:17;;;;;;;43.85;22.77;;;;;;;;;;4975466;28;20038;-96
2022/11/22 08:03:44;;;;;;;45.95;23.92;;;;;;;;;;4976456;28;20030;-93
2022/11/22 08:06:16;;;;;;;38.22;21.98;;;;;;;;;;4973747;28;20027;-95
2022/11/22 08:08:43;;;;;;;39.20;21.10;;;;;;;;;;4976935;28;20502;-96
2022/11/22 08:11:09;;;;;;;39.67;22.05;;;;;;;;;;4977508;28;20061;-94
2022/11/22 08:13:38;;;;;;;41.97;22.52;;;;;;;;;;4977699;28;20073;-94
2022/11/22 08:16:12;;;;;;;40.83;21.02;;;;;;;;;;4978704;28;20023;-91
2022/11/22 08:18:44;;;;;;;;;;;;;;;;;;4977819;28;20019;-92
2022/11/22 08:21:20;;;;;;;42.10;21.00;;;;;;;;;;4977537;28;19906;-93
2022/11/22 08:23:52;;;;;;;41.10;22.55;;;;;;;;;;4984053;28;20034;-94
2022/11/22 08:26:19;;;;;;;39.53;20.50;;;;;;;;;;4976966;28;20122;-93
2022/11/22 08:28:46;;;;;;;41.08;21.35;;;;;;;;;;4976698;28;20042;-94
2022/11/22 08:31:22;;;;;;;40.15;21.77;;;;;;;;;;4977031;28;20026;-94
2022/11/22 08:33:51;;;;;;;35.20;20.02;;;;;;;;;;4977930;28;20030;-92
2022/11/22 08:36:17;;;;;;;37.30;20.58;;;;;;;;;;4977128;28;20077;-94
2022/11/22 08:38:44;;;;;;;37.22;21.20;;;;;;;;;;4976820;28;20031;-92
2022/11/22 08:41:10;;;;;;;37.97;19.95;;;;;;;;;;4976643;28;20534;-94
2022/11/22 08:43:36;;;;;;;33.78;20.45;;;;;;;;;;4977855;28;20142;-92
2022/11/22 08:46:09;;;;;;;38.05;21.27;;;;;;;;;;4996400;28;20402;-92
2022/11/22 08:48:44;;;;;;;35.22;19.83;;;;;;;;;;4996248;28;20138;-93
2022/11/22 08:51:11;;;;;;;39.80;21.25;;;;;;;;;;4995898;28;20035;-93
2022/11/22 08:53:41;;;;;;;38.53;21.25;;;;;;;;;;4995576;28;20050;-93
2022/11/22 08:56:08;;;;;;;38.40;20.73;;;;;;;;;;4996180;28;20134;-93
2022/11/22 08:58:35;;;;;;;39.40;21.90;;;;;;;;;;5005550;28;20022;-92
2022/11/22 09:01:33;;;;;;;38.58;22.40;;;;;;;;;;4995999;28;20026;-93
2022/11/22 09:03:59;;;;;;;35.42;20.23;;;;;;;;;;4990517;28;20084;-94
2022/11/22 09:06:25;;;;;;;35.47;21.08;;;;;;;;;;4995952;28;20031;-93
2022/11/22 09:08:51;;;;;;;34.05;20.17;;;;;;;;;;4995616;28;20038;-94
2022/11/22 09:11:19;;;;;;;36.35;21.17;;;;;;;;;;4995674;28;20030;-93
2022/11/22 09:13:45;;;;;;;34.97;20.92;;;;;;;;;;4995520;28;20061;-93
2022/11/22 09:16:16;;;;;;;35.70;21.98;;;;;;;;;;4995792;28;20027;-93
2022/11/22 09:18:43;;;;;;;33.80;20.20;;;;;;;;;;4994853;28;20042;-93
2022/11/22 09:21:16;;;;;;;35.70;20.58;;;;;;;;;;4995903;28;20026;-93
2022/11/22 09:23:47;;;;;;;35.53;21.63;;;;;;;;;;4995564;28;20098;-93
2022/11/22 09:26:17;;;;;;;38.78;22.75;;;;;;;;;;4995447;28;20026;-93
2022/11/22 09:28:47;;;;;;;34.15;20.77;;;;;;;;;;4995196;28;20116;-93
2022/11/22 09:31:21;;;;;;;36.50;21.02;;;;;;;;;;5004321;28;20471;-94
2022/11/22 09:33:50;;;;;;;33.55;20.77;;;;;;;;;;4995189;28;20037;-94
2022/11/22 09:36:27;;;;;;;34.80;21.60;;;;;;;;;;4985852;28;20583;-93
2022/11/22 09:38:54;;;;;;;34.33;21.13;;;;;;;;;;4975588;28;20069;-92
2022/11/22 09:41:45;;;;;;;31.13;19.52;;;;;;;;;;4992290;28;20037;-89
2022/11/22 09:44:21;;;;;;;30.73;18.95;;;;;;;;;;4981306;28;20030;-92
2022/11/22 09:46:50;;;;;;;30.58;19.30;;;;;;;;;;4994709;28;20093;-91
2022/11/22 09:49:17;;;;;;;29.20;18.63;;;;;;;;;;4994706;28;20044;-91
2022/11/22 09:51:47;;;;;;;29.67;19.48;;;;;;;;;;4994442;28;20023;-93
2022/11/22 09:54:17;;;;;;;36.55;21.75;;;;;;;;;;4994857;28;20081;-93
2022/11/22 09:56:43;;;;;;;34.17;21.45;;;;;;;;;;4994700;28;20022;-90
2022/11/22 09:59:30;;;;;;;29.45;20.17;;;;;;;;;;4994874;28;20041;-93
2022/11/22 10:02:04;;;;;;;33.55;20.30;;;;;;;;;;4994360;28;20038;-92
2022/11/22 10:04:49;;;;;;;32.13;20.65;;;;;;;;;;4984393;28;20178;-89
2022/11/22 10:07:28;;;;;;;29.65;19.30;;;;;;;;;;4976853;28;20031;-90
2022/11/22 10:09:57;;;;;;;27.67;18.20;;;;;;;;;;5004604;28;20041;-90
2022/11/22 10:12:29;;;;;;;30.25;19.50;;;;;;;;;;4994571;28;20052;-91
2022/11/22 10:15:06;;;;;;;28.52;18.65;;;;;;;;;;4994326;28;20034;-92
2022/11/22 10:17:51;;;;;;;27.65;18.35;;;;;;;;;;4994486;28;20022;-91
2022/11/22 10:20:19;;;;;;;28.85;19.00;;;;;;;;;;4994227;28;20406;-92
2022/11/22 10:22:45;;;;;;;26.40;18.20;;;;;;;;;;4994343;28;20034;-91
2022/11/22 10:25:34;;;;;;;29.70;19.83;;;;;;;;;;4994309;28;20113;-91
2022/11/22 10:28:16;;;;;;;25.35;16.83;;;;;;;;;;4956652;28;20039;-91
2022/11/22 10:30:45;;;;;;;27.33;17.45;;;;;;;;;;4991970;28;20046;-92
2022/11/22 10:33:22;;;;;;;26.42;17.67;;;;;;;;;;4994351;28;20022;-91
2022/11/22 10:35:53;;;;;;;28.13;17.58;;;;;;;;;;4994197;28;20062;-91
2022/11/22 10:38:55;;;;;;;27.50;16.92;;;;;;;;;;4994139;28;20019;-91
2022/11/22 10:41:24;;;;;;;26.50;16.35;;;;;;;;;;4957940;28;20065;-90
2022/11/22 10:43:50;;;;;;;30.05;19.02;;;;;;;;;;4990278;28;20038;-91
2022/11/22 10:46:31;;;;;;;31.20;18.63;;;;;;;;;;4994008;28;20026;-92
2022/11/22 10:49:05;;;;;;;24.30;15.55;;;;;;;;;;4994534;28;20552;-96
2022/11/22 10:51:45;;;;;;;24.90;17.17;;;;;;;;;;4994592;28;20022;-92
2022/11/22 10:54:19;;;;;;;23.15;15.65;;;;;;;;;;4993865;28;20494;-94
2022/11/22 10:56:49;;;;;;;23.02;15.55;;;;;;;;;;4993868;28;20057;-93
2022/11/22 10:59:18;;;;;;;24.00;16.52;;;;;;;;;;4994109;28;20478;-92
2022/11/22 11:01:47;;;;;;;24.25;16.75;;;;;;;;;;4993794;28;20117;-92
2022/11/22 11:04:15;;;;;;;26.63;16.55;;;;;;;;;;4994114;28;20027;-93
2022/11/22 11:06:50;;;;;;;28.13;16.88;;;;;;;;;;4993906;28;20467;-92
2022/11/22 11:09:34;;;;;;;22.45;15.57;;;;;;;;;;4993744;28;20034;-94
2022/11/22 11:12:03;;;;;;;19.83;14.07;;;;;;;;;;4993728;28;20077;-94
2022/11/22 11:14:36;;;;;;;25.20;16.55;;;;;;;;;;4994234;28;20038;-93
2022/11/22 11:17:04;;;;;;;25.67;16.52;;;;;;;;;;4993816;28;20061;-93
2022/11/22 11:19:33;;;;;;;26.92;18.67;;;;;;;;;;4993694;28;20548;-91
2022/11/22 11:22:09;;;;;;;30.23;18.10;;;;;;;;;;4993826;28;20061;-93
2022/11/22 11:24:40;;;;;;;27.27;18.88;;;;;;;;;;4993727;28;20022;-93
2022/11/22 11:27:07;;;;;;;27.50;18.88;;;;;;;;;;4994022;28;20379;-92
2022/11/22 11:29:36;;;;;;;27.65;17.50;;;;;;;;;;4993598;28;20035;-93
2022/11/22 11:32:05;;;;;;;28.95;18.48;;;;;;;;;;4993553;28;20113;-90
2022/11/22 11:34:32;;;;;;;24.75;16.67;;;;;;;;;;4994528;28;20026;-90
2022/11/22 11:36:59;;;;;;;28.60;17.25;;;;;;;;;;4995737;28;20038;-93
2022/11/22 11:39:30;;;;;;;26.38;16.40;;;;;;;;;;4993898;28;20031;-93
2022/11/22 11:41:56;;;;;;;25.23;16.70;;;;;;;;;;4995766;28;20115;-94
2022/11/22 11:44:35;;;;;;;23.55;16.35;;;;;;;;;;4997462;28;20027;-93
2022/11/22 11:47:03;;;;;;;26.45;17.20;;;;;;;;;;4997588;28;20030;-93
2022/11/22 11:49:30;;;;;;;26.80;17.27;;;;;;;;;;4997568;28;20041;-93
2022/11/22 11:52:15;;;;;;;27.10;16.42;;;;;;;;;;4997043;28;20026;-93
2022/11/22 11:54:42;;;;;;;25.27;16.15;;;;;;;;;;4997174;28;20026;-91
2022/11/22 11:57:14;;;;;;;26.15;15.88;;;;;;;;;;4997170;28;20030;-93
2022/11/22 11:59:43;;;;;;;26.17;16.65;;;;;;;;;;4998231;28;20390;-92
2022/11/22 12:02:09;;;;;;;30.00;16.00;;;;;;;;;;4999086;28;20027;-92
2022/11/22 12:04:37;;;;;;;26.42;15.57;;;;;;;;;;5015606;28;20018;-93
2022/11/22 12:07:22;;;;;;;23.42;15.82;;;;;;;;;;5000022;28;20030;-95
2022/11/22 12:09:50;;;;;;;23.55;15.68;;;;;;;;;;4997049;28;20034;-95
2022/11/22 12:12:28;;;;;;;23.08;14.15;;;;;;;;;;4996793;28;20037;-90
2022/11/22 12:15:15;;;;;;;24.13;14.95;;;;;;;;;;4997899;28;20034;-92
2022/11/22 12:17:49;;;;;;;21.77;14.07;;;;;;;;;;4996388;28;20025;-92
2022/11/22 12:20:20;;;;;;;22.80;15.05;;;;;;;;;;4978735;28;20030;-93
2022/11/22 12:22:58;;;;;;;21.10;14.95;;;;;;;;;;4989098;28;20124;-92
2022/11/22 12:25:31;;;;;;;23.45;14.93;;;;;;;;;;4996628;28;20108;-92
2022/11/22 12:27:59;;;;;;;23.10;14.13;;;;;;;;;;4996571;28;20034;-92
2022/11/22 12:30:25;;;;;;;21.42;14.43;;;;;;;;;;4996380;28;20125;-94
2022/11/22 12:33:03;;;;;;;24.58;15.07;;;;;;;;;;4996432;28;20044;-94
2022/11/22 12:35:33;;;;;;;24.42;16.25;;;;;;;;;;4996449;28;20077;-94
2022/11/22 12:38:03;;;;;;;21.95;15.07;;;;;;;;;;4996605;28;20130;-93
2022/11/22 12:40:38;;;;;;;23.55;14.13;;;;;;;;;;4996605;28;20030;-94
2022/11/22 12:43:06;;;;;;;24.33;14.98;;;;;;;;;;4996284;28;20030;-91
2022/11/22 12:45:40;;;;;;;24.17;15.07;;;;;;;;;;4996145;28;20022;-93
2022/11/22 12:48:06;;;;;;;;;;;;;;;;;;4996381;28;20030;-92
2022/11/22 12:50:32;;;;;;;22.17;13.43;;;;;;;;;;4996316;28;19913;-94
2022/11/22 12:53:01;;;;;;;21.73;14.32;;;;;;;;;;4989853;28;20101;-95
2022/11/22 12:55:30;;;;;;;23.70;14.35;;;;;;;;;;4969124;28;20057;-93
2022/11/22 12:58:11;;;;;;;21.80;14.15;;;;;;;;;;4995943;28;20027;-94
2022/11/22 13:00:46;;;;;;;21.83;13.77;;;;;;;;;;4995847;28;20037;-91
2022/11/22 13:03:14;;;;;;;21.60;14.02;;;;;;;;;;4996004;28;20538;-94
2022/11/22 13:05:47;;;;;;;28.05;14.55;;;;;;;;;;4995783;28;20034;-91
2022/11/22 13:08:13;;;;;;;21.73;13.70;;;;;;;;;;4995914;28;20069;-92
2022/11/22 13:10:39;;;;;;;21.55;14.23;;;;;;;;;;4995566;28;20027;-93
2022/11/22 13:13:09;;;;;;;20.77;13.85;;;;;;;;;;4996370;28;20053;-91
2022/11/22 13:15:36;;;;;;;21.30;14.00;;;;;;;;;;4995797;28;20022;-91
2022/11/22 13:18:07;;;;;;;23.65;13.82;;;;;;;;;;4996032;28;20030;-94
2022/11/22 13:20:34;;;;;;;20.58;13.93;;;;;;;;;;4996082;28;20050;-93
2022/11/22 13:23:03;;;;;;;22.75;15.55;;;;;;;;;;4995547;28;20033;-91
2022/11/22 13:25:45;;;;;;;20.98;13.35;;;;;;;;;;4995607;28;20374;-91
2022/11/22 13:28:16;;;;;;;24.58;15.32;;;;;;;;;;4995550;28;20045;-93
2022/11/22 13:31:01;;;;;;;21.90;14.70;;;;;;;;;;4995628;28;20030;-92
2022/11/22 13:33:27;;;;;;;22.25;14.00;;;;;;;;;;4995325;28;20510;-92
2022/11/22 13:36:13;;;;;;;24.00;15.10;;;;;;;;;;4995411;28;20064;-92
2022/11/22 13:38:42;;;;;;;24.55;15.18;;;;;;;;;;4995091;28;20049;-91
2022/11/22 13:41:27;;;;;;;24.58;15.23;;;;;;;;;;4995094;28;20462;-92
2022/11/22 13:44:15;;;;;;;26.95;16.52;;;;;;;;;;4995386;28;20045;-90
2022/11/22 13:46:53;;;;;;;27.98;18.40;;;;;;;;;;4995106;28;20027;-91
2022/11/22 13:49:33;;;;;;;30.77;18.33;;;;;;;;;;4995056;28;20412;-93
2022/11/22 13:52:00;;;;;;;28.70;18.00;;;;;;;;;;4994869;28;20069;-92
2022/11/22 13:54:33;;;;;;;27.52;17.67;;;;;;;;;;4995010;28;20356;-92
2022/11/22 13:57:00;;;;;;;25.25;15.50;;;;;;;;;;4995044;28;20030;-91
2022/11/22 13:59:27;;;;;;;23.85;15.38;;;;;;;;;;4997138;28;20049;-91
2022/11/22 14:01:54;;;;;;;25.63;15.63;;;;;;;;;;4977398;28;20035;-91
2022/11/22 14:04:26;;;;;;;25.88;15.35;;;;;;;;;;4986793;28;20109;-91
2022/11/22 14:06:52;;;;;;;26.38;15.80;;;;;;;;;;4977024;28;20089;-93
2022/11/22 14:09:35;;;;;;;22.80;14.48;;;;;;;;;;4988627;28;20130;-92
2022/11/22 14:12:10;;;;;;;21.45;13.60;;;;;;;;;;4975213;28;20030;-94
2022/11/22 14:14:59;;;;;;;30.33;16.48;;;;;;;;;;4976523;28;20062;-94
2022/11/22 14:17:46;;;;;;;24.75;15.43;;;;;;;;;;4975127;28;20053;-96
2022/11/22 14:20:19;;;;;;;26.05;16.50;;;;;;;;;;4975184;28;20118;-93
2022/11/22 14:22:49;;;;;;;28.60;16.67;;;;;;;;;;4974911;28;20030;-93
2022/11/22 14:25:34;;;;;;;28.88;16.02;;;;;;;;;;4974836;28;20101;-92
2022/11/22 14:28:09;;;;;;;28.98;15.95;;;;;;;;;;4975291;28;20471;-90
2022/11/22 14:30:42;;;;;;;26.65;15.95;;;;;;;;;;4974972;28;20136;-92
2022/11/22 14:33:15;;;;;;;28.55;16.80;;;;;;;;;;4975173;28;20031;-93
2022/11/22 14:35:41;;;;;;;;;;;;;;;;;;4975397;28;20031;-93
2022/11/22 14:38:23;;;;;;;28.45;16.15;;;;;;;;;;4975690;28;19910;-93
2022/11/22 14:40:49;;;;;;;24.45;15.57;;;;;;;;;;4974699;28;20031;-92
2022/11/22 14:43:15;;;;;;;26.25;15.93;;;;;;;;;;4974860;28;20023;-92
2022/11/22 14:45:49;;;;;;;23.80;15.70;;;;;;;;;;4974608;28;20035;-92
2022/11/22 14:48:24;;;;;;;28.58;16.92;;;;;;;;;;4974926;28;20027;-90
2022/11/22 14:51:05;;;;;;;26.42;16.08;;;;;;;;;;4974884;28;20019;-91
2022/11/22 14:53:34;;;;;;;26.60;15.60;;;;;;;;;;4974445;28;20055;-94
2022/11/22 14:56:20;;;;;;;26.38;15.32;;;;;;;;;;4974595;28;20023;-93
2022/11/22 14:58:55;;;;;;;26.13;16.50;;;;;;;;;;4974515;28;20035;-89
2022/11/22 15:01:21;;;;;;;30.17;17.80;;;;;;;;;;4975247;28;20437;-91
2022/11/22 15:03:53;;;;;;;34.65;18.23;;;;;;;;;;4974576;28;20035;-90
2022/11/22 15:06:28;;;;;;;35.80;19.77;;;;;;;;;;4983528;28;20088;-92
2022/11/22 15:09:18;;;;;;;32.10;18.70;;;;;;;;;;4988473;28;20027;-88